createdAt,value
2023-02-24T00:04:34.682Z,277.90
2023-02-24T00:09:34.014Z,248.30
2023-02-24T00:14:33.329Z,218.20
2023-02-24T00:19:32.770Z,191.70
2023-02-24T00:24:31.933Z,176.80
2023-02-24T00:29:31.255Z,163.10
2023-02-24T00:34:30.622Z,156.50
2023-02-24T00:39:30.847Z,144.80
2023-02-24T00:44:30.117Z,135.70
2023-02-24T00:49:28.215Z,125.70
2023-02-24T00:54:26.362Z,119.60
2023-02-24T00:59:27.501Z,113.70
2023-02-24T01:04:26.813Z,108.10
2023-02-24T01:09:25.134Z,100.30
2023-02-24T01:14:25.437Z,95.20
2023-02-24T01:19:24.817Z,90.60
2023-02-24T01:24:23.949Z,86.20
2023-02-24T01:29:22.277Z,81.00
2023-02-24T01:34:21.674Z,78.10
2023-02-24T01:39:21.782Z,73.60
2023-02-24T01:44:20.074Z,68.60
2023-02-24T01:49:19.374Z,63.80
2023-02-24T01:54:18.671Z,61.70
2023-02-24T01:59:17.943Z,59.60
2023-02-24T02:04:17.229Z,54.90
2023-02-24T02:09:17.529Z,51.60
2023-02-24T02:14:15.938Z,49.10
2023-02-24T02:19:16.054Z,45.40
2023-02-24T02:24:14.378Z,43.60
2023-02-24T02:29:13.687Z,42.30
2023-02-24T02:34:12.866Z,39.60
2023-02-24T02:39:12.004Z,36.90
2023-02-24T02:44:11.308Z,37.10
2023-02-24T02:49:10.633Z,33.80
2023-02-24T02:54:11.160Z,32.40
2023-02-24T02:59:10.088Z,29.90
2023-02-24T03:04:08.242Z,29.20
2023-02-24T03:09:07.395Z,26.90
2023-02-24T03:14:06.551Z,25.70
2023-02-24T03:19:05.912Z,24.70
2023-02-24T03:24:05.038Z,22.40
2023-02-24T03:29:05.367Z,22.10
2023-02-24T03:34:04.662Z,22.10
2023-02-24T03:39:05.007Z,20.80
2023-02-24T03:44:02.135Z,18.30
2023-02-24T03:49:03.489Z,16.60
2023-02-24T03:54:00.636Z,16.70
2023-02-24T03:58:59.767Z,15.20
2023-02-24T04:03:59.117Z,15.80
2023-02-24T04:08:59.246Z,15.30
2023-02-24T04:13:57.567Z,14.90
2023-02-24T19:51:32.252Z,39.20
2023-02-24T19:56:29.451Z,36.50
2023-02-24T20:01:29.505Z,19.60
2023-02-24T20:06:31.649Z,17.80
2023-02-24T20:11:28.231Z,77.10
2023-02-24T20:16:26.758Z,15.70
2023-02-24T20:21:26.863Z,29.40
2023-02-24T20:26:26.926Z,20.70
2023-02-24T20:31:24.203Z,24.30
2023-02-24T20:36:24.604Z,26.50
2023-02-24T20:41:22.609Z,15.50
2023-02-24T20:46:22.341Z,9.20
2023-02-24T20:51:23.087Z,12.40
2023-02-24T20:56:20.438Z,6.10
2023-02-24T21:01:20.493Z,15.50
2023-02-24T21:06:18.625Z,96.70
2023-02-24T21:11:17.748Z,19.50
2023-02-24T21:16:17.170Z,23.40
2023-02-24T21:21:16.377Z,20.10
2023-02-24T21:26:15.516Z,19.10
2023-02-24T21:31:15.909Z,19.50
2023-02-24T21:36:15.323Z,43.90
2023-02-24T21:41:14.433Z,54.30
2023-02-24T21:46:17.567Z,85.30
2023-02-24T21:51:11.802Z,79.90
2023-02-24T21:56:13.120Z,136.40
2023-02-24T22:01:10.430Z,57.40
2023-02-24T22:06:09.559Z,193.20
2023-02-24T22:11:08.857Z,193.40
2023-02-24T22:16:08.204Z,239.60
2023-02-24T22:21:07.328Z,34.80
2023-02-24T22:26:06.553Z,109.70
2023-02-24T22:31:07.003Z,93.80
2023-02-24T22:36:05.102Z,109.20
2023-02-24T22:41:04.419Z,234.10
2023-02-24T22:46:04.548Z,233.30
2023-02-24T22:51:04.848Z,43.50
2023-02-24T22:56:04.106Z,82.80
2023-02-24T23:01:01.547Z,98.70
2023-02-24T23:06:01.688Z,131.80
2023-02-24T23:10:59.983Z,148.80
2023-02-24T23:15:59.320Z,101.90
2023-02-24T23:20:58.623Z,84.80
2023-02-24T23:25:57.890Z,63.70
2023-02-24T23:30:57.221Z,16.70
2023-02-24T23:35:56.511Z,24.10
2023-02-24T23:40:56.790Z,70.10
2023-02-24T23:45:57.142Z,31.50
2023-02-24T23:50:54.220Z,16.30
2023-02-24T23:55:53.510Z,28.30
